Time;durP1;ratioP1;P1;durP2;ratioP2;P2;SDS_P1;SDS_P2;PMS_P1;PMS_P2;Temp;Humidity;BMP_temperature;BMP_pressure;BME280_temperature;BME280_humidity;BME280_pressure;Samples;Min_cycle;Max_cycle;Signal;HPM_P1;HPM_P2
2024/01/02 00:01:56;;;;;;;12.07;3.88;;;;;;;;;;5039353;28;20040;-72
2024/01/02 00:04:24;;;;;;;17.42;4.50;;;;;;;;;;5016030;28;20475;-72
2024/01/02 00:06:50;;;;;;;13.68;5.75;;;;;;;;;;5025563;28;20033;-72
2024/01/02 00:09:16;;;;;;;20.77;3.70;;;;;;;;;;5040603;28;20107;-72
2024/01/02 00:11:43;;;;;;;14.13;4.38;;;;;;;;;;5013779;28;20105;-73
2024/01/02 00:14:09;;;;;;;9.18;4.07;;;;;;;;;;5039544;28;20096;-72
2024/01/02 00:16:35;;;;;;;6.18;3.67;;;;;;;;;;5023781;28;20652;-73
2024/01/02 00:19:02;;;;;;;10.05;4.30;;;;;;;;;;5017671;28;20036;-72
2024/01/02 00:21:28;;;;;;;18.00;3.15;;;;;;;;;;5017763;28;20388;-62
2024/01/02 00:23:57;;;;;;;11.25;3.90;;;;;;;;;;5024750;28;20033;-62
2024/01/02 00:26:23;;;;;;;13.48;3.50;;;;;;;;;;5019422;28;20029;-62
2024/01/02 00:28:49;;;;;;;12.27;3.45;;;;;;;;;;5019367;28;20026;-62
2024/01/02 00:31:15;;;;;;;11.25;3.15;;;;;;;;;;5015817;28;20022;-62
2024/01/02 00:33:42;;;;;;;11.73;3.35;;;;;;;;;;5017764;28;20350;-64
2024/01/02 00:36:11;;;;;;;12.13;3.35;;;;;;;;;;5014228;28;20649;-61
2024/01/02 00:38:41;;;;;;;10.73;3.53;;;;;;;;;;5032941;28;20140;-66
2024/01/02 00:41:07;;;;;;;11.90;3.28;;;;;;;;;;5016491;28;20042;-62
2024/01/02 00:43:33;;;;;;;12.15;3.97;;;;;;;;;;5019208;28;20104;-62
2024/01/02 00:46:00;;;;;;;12.45;3.72;;;;;;;;;;5017409;28;20854;-61
2024/01/02 00:48:26;;;;;;;17.58;3.90;;;;;;;;;;5011180;28;20022;-63
2024/01/02 00:50:52;;;;;;;17.40;4.82;;;;;;;;;;5015677;28;20073;-62
2024/01/02 00:53:19;;;;;;;19.60;4.15;;;;;;;;;;5020665;28;20025;-62
2024/01/02 00:55:45;;;;;;;10.55;2.60;;;;;;;;;;5014181;28;20083;-62
2024/01/02 00:58:11;;;;;;;14.35;3.45;;;;;;;;;;5009192;28;20424;-62
2024/01/02 01:00:37;;;;;;;10.15;3.63;;;;;;;;;;5018368;28;20397;-62
2024/01/02 01:03:04;;;;;;;10.52;3.50;;;;;;;;;;5015281;28;20087;-66
2024/01/02 01:05:31;;;;;;;12.10;3.28;;;;;;;;;;5042484;28;20125;-65
2024/01/02 01:07:57;;;;;;;9.88;3.92;;;;;;;;;;5009907;28;20424;-62
2024/01/02 01:10:23;;;;;;;9.65;2.85;;;;;;;;;;5017515;28;20032;-62
2024/01/02 01:12:49;;;;;;;4.20;2.40;;;;;;;;;;5022039;28;20029;-62
2024/01/02 01:15:15;;;;;;;15.65;3.40;;;;;;;;;;5016115;28;20105;-62
2024/01/02 01:17:42;;;;;;;17.60;3.13;;;;;;;;;;5028329;28;20029;-62
2024/01/02 01:20:08;;;;;;;13.35;3.58;;;;;;;;;;5009128;28;20521;-62
2024/01/02 01:22:35;;;;;;;6.72;3.38;;;;;;;;;;5017802;28;20111;-62
2024/01/02 01:25:01;;;;;;;6.53;2.17;;;;;;;;;;5023235;28;20032;-62
2024/01/02 01:27:27;;;;;;;13.05;3.03;;;;;;;;;;5019942;28;20480;-62
2024/01/02 01:29:53;;;;;;;12.10;3.30;;;;;;;;;;5014141;28;20028;-63
2024/01/02 01:32:19;;;;;;;7.43;2.08;;;;;;;;;;5010320;28;20633;-62
2024/01/02 01:34:46;;;;;;;8.48;3.05;;;;;;;;;;5011685;28;20033;-62
2024/01/02 01:37:13;;;;;;;10.05;2.70;;;;;;;;;;5016572;28;20840;-62
2024/01/02 01:39:39;;;;;;;9.77;2.60;;;;;;;;;;5044167;28;20040;-62
2024/01/02 01:42:05;;;;;;;13.55;3.28;;;;;;;;;;5016464;28;20098;-62
2024/01/02 01:44:32;;;;;;;13.48;2.53;;;;;;;;;;5028173;28;20025;-62
2024/01/02 01:46:58;;;;;;;7.95;3.83;;;;;;;;;;5015709;28;20026;-62
2024/01/02 01:49:24;;;;;;;8.15;3.08;;;;;;;;;;5029676;28;20424;-62
2024/01/02 01:51:52;;;;;;;8.73;2.55;;;;;;;;;;5028849;28;20036;-63
2024/01/02 01:54:19;;;;;;;6.97;2.70;;;;;;;;;;5013295;28;20068;-62
2024/01/02 01:56:45;;;;;;;13.15;3.28;;;;;;;;;;5024477;28;20116;-62
2024/01/02 01:59:14;;;;;;;12.50;3.28;;;;;;;;;;5017215;28;20393;-64
2024/01/02 02:01:44;;;;;;;10.07;3.17;;;;;;;;;;5041394;28;20033;-64
2024/01/02 02:04:10;;;;;;;13.35;3.65;;;;;;;;;;5009339;28;20033;-63
2024/01/02 02:06:36;;;;;;;8.45;2.70;;;;;;;;;;5011227;28;20109;-64
2024/01/02 02:09:02;;;;;;;8.65;2.95;;;;;;;;;;5017781;28;20052;-62
2024/01/02 02:11:29;;;;;;;10.45;2.55;;;;;;;;;;5012877;28;20060;-62
2024/01/02 02:13:55;;;;;;;9.90;2.45;;;;;;;;;;5014790;28;20025;-63
2024/01/02 02:16:21;;;;;;;8.02;2.95;;;;;;;;;;5014731;28;20025;-62
2024/01/02 02:18:47;;;;;;;8.77;2.72;;;;;;;;;;5013269;28;20038;-62
2024/01/02 02:21:13;;;;;;;5.72;2.55;;;;;;;;;;5017796;28;20453;-62
2024/01/02 02:23:40;;;;;;;9.93;2.75;;;;;;;;;;5013120;28;20603;-62
2024/01/02 02:26:06;;;;;;;9.15;2.88;;;;;;;;;;5014811;28;20036;-62
2024/01/02 02:28:32;;;;;;;6.78;3.05;;;;;;;;;;5015557;28;20400;-62
2024/01/02 02:30:58;;;;;;;12.13;3.22;;;;;;;;;;5012812;28;20061;-63
2024/01/02 02:33:24;;;;;;;8.40;2.50;;;;;;;;;;5012710;28;20025;-62
2024/01/02 02:35:51;;;;;;;7.93;2.42;;;;;;;;;;5013359;28;20033;-62
2024/01/02 02:38:17;;;;;;;3.65;2.20;;;;;;;;;;5012455;28;20048;-62
2024/01/02 02:40:43;;;;;;;5.43;2.70;;;;;;;;;;5011735;28;20061;-65
2024/01/02 02:43:09;;;;;;;9.13;3.08;;;;;;;;;;5009468;28;20495;-63
2024/01/02 02:45:35;;;;;;;12.90;2.60;;;;;;;;;;5033371;28;20033;-62
2024/01/02 02:48:02;;;;;;;9.02;2.53;;;;;;;;;;5041687;28;20040;-62
2024/01/02 02:50:28;;;;;;;20.20;3.05;;;;;;;;;;5013355;28;20046;-62
2024/01/02 02:52:54;;;;;;;6.88;2.95;;;;;;;;;;5013278;28;20033;-63
2024/01/02 02:55:20;;;;;;;14.48;2.60;;;;;;;;;;5011308;28;20552;-62
2024/01/02 02:57:47;;;;;;;16.50;3.03;;;;;;;;;;5016164;28;21067;-62
2024/01/02 03:00:13;;;;;;;8.75;2.08;;;;;;;;;;5012252;28;20362;-66
2024/01/02 03:02:39;;;;;;;10.05;2.38;;;;;;;;;;5012032;28;20507;-64
2024/01/02 03:05:06;;;;;;;19.20;2.97;;;;;;;;;;5015604;28;20053;-62
2024/01/02 03:07:32;;;;;;;9.10;2.55;;;;;;;;;;5026610;28;20029;-63
2024/01/02 03:09:58;;;;;;;7.15;2.05;;;;;;;;;;5013493;28;20496;-62
2024/01/02 03:12:24;;;;;;;9.85;2.35;;;;;;;;;;5010229;28;20041;-62
2024/01/02 03:14:50;;;;;;;16.83;2.67;;;;;;;;;;5013120;28;20080;-62
2024/01/02 03:17:16;;;;;;;13.57;2.60;;;;;;;;;;5008780;28;20029;-62
2024/01/02 03:19:44;;;;;;;8.60;2.63;;;;;;;;;;5017135;28;20030;-63
2024/01/02 03:22:10;;;;;;;18.63;2.70;;;;;;;;;;5007762;28;20485;-62
2024/01/02 03:24:36;;;;;;;11.10;2.95;;;;;;;;;;5024073;28;20033;-62
2024/01/02 03:27:03;;;;;;;16.48;3.40;;;;;;;;;;5024697;28;20045;-62
2024/01/02 03:29:29;;;;;;;6.93;2.63;;;;;;;;;;5014235;28;20500;-62
2024/01/02 03:31:55;;;;;;;13.82;3.42;;;;;;;;;;5007591;28;20475;-62
2024/01/02 03:34:21;;;;;;;6.75;2.78;;;;;;;;;;5038259;28;20026;-61
2024/01/02 03:36:48;;;;;;;11.38;2.60;;;;;;;;;;5032072;28;20429;-62
2024/01/02 03:39:14;;;;;;;14.27;2.30;;;;;;;;;;5020757;28;20388;-65
2024/01/02 03:41:40;;;;;;;8.38;3.22;;;;;;;;;;5013962;28;20109;-62
2024/01/02 03:44:06;;;;;;;3.22;1.60;;;;;;;;;;5008629;28;20116;-63
2024/01/02 03:46:32;;;;;;;8.35;1.98;;;;;;;;;;5012537;28;20037;-63
2024/01/02 03:48:58;;;;;;;12.45;2.80;;;;;;;;;;5036380;28;20052;-62
2024/01/02 03:51:24;;;;;;;9.85;3.25;;;;;;;;;;5015503;28;20061;-62
2024/01/02 03:53:51;;;;;;;7.68;2.30;;;;;;;;;;5016223;28;20367;-62
2024/01/02 03:56:17;;;;;;;4.90;2.35;;;;;;;;;;5014651;28;20243;-62
2024/01/02 03:58:43;;;;;;;5.50;2.38;;;;;;;;;;5021642;28;20396;-62
2024/01/02 04:01:09;;;;;;;13.20;2.67;;;;;;;;;;5010959;28;20046;-63
2024/01/02 04:03:36;;;;;;;13.13;2.17;;;;;;;;;;5012206;28;20594;-63
2024/01/02 04:06:02;;;;;;;5.38;2.13;;;;;;;;;;5011210;28;20465;-62
2024/01/02 04:08:28;;;;;;;2.88;2.40;;;;;;;;;;5015491;28;20049;-64
2024/01/02 04:10:54;;;;;;;5.68;2.00;;;;;;;;;;5007170;28;20021;-62
2024/01/02 04:13:21;;;;;;;5.15;2.08;;;;;;;;;;5008653;28;20025;-62
2024/01/02 04:15:47;;;;;;;4.68;2.50;;;;;;;;;;5028011;28;20037;-62
2024/01/02 04:18:14;;;;;;;7.15;1.90;;;;;;;;;;5014810;28;20059;-62
2024/01/02 04:20:40;;;;;;;6.00;2.00;;;;;;;;;;5029203;28;20065;-63
2024/01/02 04:23:07;;;;;;;7.22;2.28;;;;;;;;;;5019514;28;20033;-62
2024/01/02 04:25:33;;;;;;;5.88;1.90;;;;;;;;;;5013342;28;20033;-62
2024/01/02 04:27:59;;;;;;;8.10;2.50;;;;;;;;;;5034259;28;20477;-62
2024/01/02 04:30:26;;;;;;;4.72;2.17;;;;;;;;;;5005942;28;20132;-63
2024/01/02 04:32:52;;;;;;;9.75;2.45;;;;;;;;;;5005191;28;20034;-63
2024/01/02 04:35:18;;;;;;;12.15;2.22;;;;;;;;;;5004895;28;20088;-62
2024/01/02 04:37:45;;;;;;;7.93;2.85;;;;;;;;;;5021191;28;20071;-62
2024/01/02 04:40:11;;;;;;;4.43;2.58;;;;;;;;;;5016749;28;20490;-62
2024/01/02 04:42:41;;;;;;;6.38;1.85;;;;;;;;;;5009983;28;20528;-62
2024/01/02 04:45:08;;;;;;;3.78;2.20;;;;;;;;;;5017940;28;20453;-62
2024/01/02 04:47:34;;;;;;;10.27;2.20;;;;;;;;;;5020435;28;20390;-62
2024/01/02 04:50:00;;;;;;;7.07;2.40;;;;;;;;;;5023550;28;20554;-62
2024/01/02 04:52:26;;;;;;;11.75;2.70;;;;;;;;;;5016286;28;20029;-62
2024/01/02 04:54:53;;;;;;;6.95;1.98;;;;;;;;;;5017406;28;20983;-62
2024/01/02 04:57:19;;;;;;;10.82;2.45;;;;;;;;;;5019485;28;20068;-63
2024/01/02 04:59:48;;;;;;;6.25;2.25;;;;;;;;;;5019644;28;20113;-62
2024/01/02 05:02:14;;;;;;;5.18;2.08;;;;;;;;;;5013388;28;20040;-62
2024/01/02 05:04:41;;;;;;;7.03;3.33;;;;;;;;;;5018002;28;20056;-65
2024/01/02 05:07:07;;;;;;;9.85;2.33;;;;;;;;;;5006684;28;20536;-62
2024/01/02 05:09:33;;;;;;;6.65;1.98;;;;;;;;;;5014994;28;20474;-66
2024/01/02 05:11:59;;;;;;;8.07;2.80;;;;;;;;;;5014282;28;20100;-62
2024/01/02 05:14:25;;;;;;;11.10;2.28;;;;;;;;;;5010763;28;20030;-62
2024/01/02 05:16:52;;;;;;;8.98;2.67;;;;;;;;;;5019977;28;20323;-62
2024/01/02 05:19:18;;;;;;;5.40;2.25;;;;;;;;;;5014575;28;20154;-62
2024/01/02 05:21:44;;;;;;;7.85;2.50;;;;;;;;;;5016629;28;20503;-62
2024/01/02 05:24:10;;;;;;;5.22;1.83;;;;;;;;;;5015449;28;20088;-62
2024/01/02 05:26:36;;;;;;;4.38;1.92;;;;;;;;;;5014282;28;20030;-62
2024/01/02 05:29:02;;;;;;;4.80;1.88;;;;;;;;;;5015928;28;20605;-62
2024/01/02 05:31:29;;;;;;;5.93;2.67;;;;;;;;;;5020470;28;20026;-62
2024/01/02 05:33:55;;;;;;;6.75;2.45;;;;;;;;;;5016375;28;20362;-62
2024/01/02 05:36:21;;;;;;;10.18;2.90;;;;;;;;;;5012143;28;20543;-62
2024/01/02 05:38:47;;;;;;;10.45;2.15;;;;;;;;;;5023322;28;20041;-64
2024/01/02 05:41:13;;;;;;;7.03;2.10;;;;;;;;;;5024212;28;20029;-64
2024/01/02 05:43:39;;;;;;;9.15;2.85;;;;;;;;;;5018390;28;20060;-68
2024/01/02 05:46:05;;;;;;;8.35;2.30;;;;;;;;;;5014734;28;20470;-62
2024/01/02 05:48:32;;;;;;;7.50;2.90;;;;;;;;;;5010606;28;20047;-62
2024/01/02 05:50:58;;;;;;;5.35;2.10;;;;;;;;;;5020612;28;20120;-63
2024/01/02 05:53:24;;;;;;;5.05;1.90;;;;;;;;;;5032133;28;20030;-62
2024/01/02 05:55:50;;;;;;;8.45;2.65;;;;;;;;;;5015107;28;20030;-62
2024/01/02 05:58:16;;;;;;;7.18;2.40;;;;;;;;;;5016624;28;20516;-63
2024/01/02 06:00:42;;;;;;;9.48;2.45;;;;;;;;;;5026811;28;20470;-62
2024/01/02 06:03:08;;;;;;;10.00;2.13;;;;;;;;;;5016307;28;20492;-62
2024/01/02 06:05:35;;;;;;;4.47;2.10;;;;;;;;;;5031165;28;20029;-62
2024/01/02 06:08:02;;;;;;;10.48;2.33;;;;;;;;;;5015271;28;20103;-62
2024/01/02 06:10:28;;;;;;;10.25;2.60;;;;;;;;;;5015638;28;20025;-62
2024/01/02 06:12:54;;;;;;;6.95;2.20;;;;;;;;;;5009078;28;20026;-62
2024/01/02 06:15:21;;;;;;;8.13;1.77;;;;;;;;;;5016571;28;20608;-62
2024/01/02 06:17:47;;;;;;;7.97;2.22;;;;;;;;;;5012815;28;20040;-62
2024/01/02 06:20:13;;;;;;;7.15;2.08;;;;;;;;;;5011384;28;20108;-62
2024/01/02 06:22:39;;;;;;;10.00;2.72;;;;;;;;;;5016865;28;20026;-67
2024/01/02 06:25:08;;;;;;;5.18;2.63;;;;;;;;;;5009845;28;20025;-62
2024/01/02 06:27:36;;;;;;;6.70;2.22;;;;;;;;;;5031060;28;20113;-63
2024/01/02 06:30:05;;;;;;;10.43;2.17;;;;;;;;;;5027374;28;20428;-63
2024/01/02 06:32:32;;;;;;;4.43;2.08;;;;;;;;;;5023328;28;20028;-62
2024/01/02 06:34:58;;;;;;;9.32;2.53;;;;;;;;;;5015359;28;20028;-62
2024/01/02 06:37:25;;;;;;;9.00;2.45;;;;;;;;;;5020358;28;20044;-62
2024/01/02 06:39:51;;;;;;;8.50;2.50;;;;;;;;;;5017674;28;20032;-62
2024/01/02 06:42:17;;;;;;;9.88;2.47;;;;;;;;;;5006135;28;20052;-62
2024/01/02 06:44:45;;;;;;;4.95;2.17;;;;;;;;;;5013844;28;20034;-62
2024/01/02 06:47:12;;;;;;;12.15;2.95;;;;;;;;;;5018371;28;20641;-62
2024/01/02 06:49:38;;;;;;;8.30;1.80;;;;;;;;;;5016977;28;20052;-62
2024/01/02 06:52:04;;;;;;;10.00;2.33;;;;;;;;;;5015730;28;20037;-62
2024/01/02 06:54:30;;;;;;;5.97;2.50;;;;;;;;;;5013019;28;20026;-62
2024/01/02 06:56:58;;;;;;;2.97;1.73;;;;;;;;;;5013561;28;20025;-63
2024/01/02 06:59:24;;;;;;;2.80;2.00;;;;;;;;;;5017226;28;20025;-63
2024/01/02 07:01:50;;;;;;;4.13;2.45;;;;;;;;;;5009515;28;20569;-62
2024/01/02 07:04:16;;;;;;;4.18;1.88;;;;;;;;;;5006742;28;20040;-63
2024/01/02 07:06:43;;;;;;;14.10;2.30;;;;;;;;;;5011215;28;20045;-63
2024/01/02 07:09:09;;;;;;;6.70;2.33;;;;;;;;;;5012446;28;20461;-62
2024/01/02 07:11:35;;;;;;;11.55;2.83;;;;;;;;;;5021683;28;20120;-62
2024/01/02 07:14:01;;;;;;;6.15;2.08;;;;;;;;;;5014278;28;20026;-63
2024/01/02 07:16:27;;;;;;;6.57;2.40;;;;;;;;;;5026701;28;20111;-62
2024/01/02 07:18:53;;;;;;;16.05;2.63;;;;;;;;;;5034438;28;20025;-63
2024/01/02 07:21:19;;;;;;;5.28;2.15;;;;;;;;;;5016172;28;20057;-63
2024/01/02 07:23:47;;;;;;;4.72;1.73;;;;;;;;;;5018435;28;20076;-73
2024/01/02 07:26:13;;;;;;;9.82;2.22;;;;;;;;;;5029322;28;20065;-73
2024/01/02 07:28:40;;;;;;;9.60;2.40;;;;;;;;;;5020426;28;20057;-73
2024/01/02 07:31:08;;;;;;;7.43;2.58;;;;;;;;;;5037206;28;20399;-73
2024/01/02 07:33:34;;;;;;;10.20;2.75;;;;;;;;;;5012706;28;20025;-73
2024/01/02 07:36:00;;;;;;;9.68;3.05;;;;;;;;;;5013991;28;20469;-73
2024/01/02 07:38:26;;;;;;;8.32;2.65;;;;;;;;;;5012326;28;20030;-73
2024/01/02 07:40:53;;;;;;;3.28;2.10;;;;;;;;;;5026109;28;20045;-74
2024/01/02 07:43:20;;;;;;;6.25;2.50;;;;;;;;;;5017267;28;20033;-74
2024/01/02 07:45:46;;;;;;;12.10;2.47;;;;;;;;;;5030428;28;20114;-74
2024/01/02 07:48:12;;;;;;;8.50;4.68;;;;;;;;;;5020168;28;20492;-73
2024/01/02 07:50:39;;;;;;;9.93;2.72;;;;;;;;;;5025225;28;20049;-73
2024/01/02 07:53:05;;;;;;;12.70;3.20;;;;;;;;;;5010452;28;20044;-73
2024/01/02 07:55:31;;;;;;;5.88;2.10;;;;;;;;;;5021600;28;20114;-74
2024/01/02 07:57:58;;;;;;;6.10;2.10;;;;;;;;;;5009257;28;20504;-73
2024/01/02 08:00:24;;;;;;;6.05;2.63;;;;;;;;;;5020803;28;20060;-74
2024/01/02 08:02:51;;;;;;;7.00;1.98;;;;;;;;;;5017322;28;20029;-73
2024/01/02 08:05:17;;;;;;;10.70;2.30;;;;;;;;;;5014463;28;20803;-73
2024/01/02 08:07:44;;;;;;;5.95;2.20;;;;;;;;;;5017803;28;20056;-74
2024/01/02 08:10:10;;;;;;;15.88;2.80;;;;;;;;;;5022295;28;20018;-73
2024/01/02 08:12:36;;;;;;;10.68;3.80;;;;;;;;;;5015430;28;20025;-73
2024/01/02 08:15:03;;;;;;;5.15;2.22;;;;;;;;;;5010429;28;20024;-73
2024/01/02 08:17:29;;;;;;;10.13;2.35;;;;;;;;;;5024342;28;20036;-74
2024/01/02 08:19:55;;;;;;;9.45;3.20;;;;;;;;;;5042213;28;20036;-73
2024/01/02 08:22:21;;;;;;;26.42;3.63;;;;;;;;;;5017840;28;20045;-73
2024/01/02 08:24:48;;;;;;;18.15;2.72;;;;;;;;;;5031781;28;20029;-73
2024/01/02 08:27:14;;;;;;;7.63;2.08;;;;;;;;;;5017632;28;20040;-73
2024/01/02 08:29:41;;;;;;;11.80;2.90;;;;;;;;;;5015825;28;20532;-73
2024/01/02 08:32:07;;;;;;;8.18;2.53;;;;;;;;;;5038819;28;20045;-73
2024/01/02 08:34:33;;;;;;;7.70;2.45;;;;;;;;;;5022070;28;20104;-73
2024/01/02 08:36:59;;;;;;;5.05;2.28;;;;;;;;;;5022305;28;20029;-73
2024/01/02 08:39:25;;;;;;;9.10;2.65;;;;;;;;;;5041154;28;20033;-73
2024/01/02 08:41:51;;;;;;;11.52;2.72;;;;;;;;;;5029630;28;20393;-73
2024/01/02 08:44:18;;;;;;;14.07;3.20;;;;;;;;;;5015531;28;20056;-73
2024/01/02 08:46:44;;;;;;;10.32;2.13;;;;;;;;;;5027821;28;20036;-73
2024/01/02 08:49:11;;;;;;;12.38;2.25;;;;;;;;;;5032121;28;20147;-73
2024/01/02 08:51:37;;;;;;;6.88;2.45;;;;;;;;;;5016575;28;20028;-73
2024/01/02 08:54:04;;;;;;;7.35;2.88;;;;;;;;;;5029785;28;20033;-73
2024/01/02 08:56:30;;;;;;;7.50;2.25;;;;;;;;;;5017647;28;20072;-74
2024/01/02 08:58:56;;;;;;;18.88;2.53;;;;;;;;;;5023847;28;20460;-73
2024/01/02 09:01:22;;;;;;;5.38;2.92;;;;;;;;;;5019128;28;20040;-73
2024/01/02 09:03:48;;;;;;;9.05;2.00;;;;;;;;;;5022159;28;20045;-73
2024/01/02 09:06:19;;;;;;;5.68;2.10;;;;;;;;;;5016016;28;20125;-73
2024/01/02 09:08:45;;;;;;;8.32;2.38;;;;;;;;;;5019273;28;20430;-73
2024/01/02 09:11:12;;;;;;;10.30;2.83;;;;;;;;;;5024059;28;20100;-74
2024/01/02 09:13:38;;;;;;;12.43;2.70;;;;;;;;;;5020228;28;20398;-74
2024/01/02 09:16:04;;;;;;;11.07;2.22;;;;;;;;;;5020547;28;20026;-73
2024/01/02 09:18:30;;;;;;;11.15;2.75;;;;;;;;;;5020415;28;20097;-73
2024/01/02 09:20:57;;;;;;;8.35;2.53;;;;;;;;;;5026722;28;20048;-74
2024/01/02 09:23:23;;;;;;;7.72;2.20;;;;;;;;;;5012604;28;20601;-73
2024/01/02 09:25:51;;;;;;;11.98;3.17;;;;;;;;;;5013203;28;20061;-73
2024/01/02 09:28:19;;;;;;;9.15;2.28;;;;;;;;;;5022294;28;20037;-73
2024/01/02 09:30:46;;;;;;;8.23;2.20;;;;;;;;;;5013492;28;20035;-73
2024/01/02 09:33:12;;;;;;;8.20;2.30;;;;;;;;;;5041777;28;20085;-73
2024/01/02 09:35:38;;;;;;;8.70;1.92;;;;;;;;;;5020375;28;20022;-74
2024/01/02 09:38:04;;;;;;;7.65;2.25;;;;;;;;;;5020971;28;20044;-73
2024/01/02 09:40:31;;;;;;;5.93;2.00;;;;;;;;;;5036785;28;20547;-73
2024/01/02 09:42:57;;;;;;;7.82;2.70;;;;;;;;;;5013504;28;20057;-73
2024/01/02 09:45:29;;;;;;;6.47;2.33;;;;;;;;;;5029126;28;20029;-73
2024/01/02 09:47:55;;;;;;;9.95;2.05;;;;;;;;;;5021925;28;20035;-73
2024/01/02 09:50:37;;;;;;;3.90;2.30;;;;;;;;;;5036481;28;20037;-73
2024/01/02 09:53:06;;;;;;;8.93;2.50;;;;;;;;;;5021325;28;20481;-73
2024/01/02 09:55:38;;;;;;;4.85;1.88;;;;;;;;;;5013729;28;20029;-74
2024/01/02 09:58:11;;;;;;;8.18;2.20;;;;;;;;;;5009132;28;20056;-73
2024/01/02 10:00:58;;;;;;;4.15;2.53;;;;;;;;;;5022690;28;20041;-73
2024/01/02 10:03:39;;;;;;;8.60;2.38;;;;;;;;;;5022937;28;20040;-73
2024/01/02 10:06:29;;;;;;;6.72;2.53;;;;;;;;;;5011529;28;20038;-74
2024/01/02 10:09:03;;;;;;;7.82;2.25;;;;;;;;;;5013917;28;20519;-74
2024/01/02 10:11:31;;;;;;;8.73;1.75;;;;;;;;;;5011591;28;20026;-73
2024/01/02 10:14:01;;;;;;;5.72;1.77;;;;;;;;;;5025832;28;20076;-73
2024/01/02 10:16:46;;;;;;;3.25;2.00;;;;;;;;;;5037376;28;20037;-73
2024/01/02 10:19:19;;;;;;;1.95;1.48;;;;;;;;;;5024184;28;20496;-74
2024/01/02 10:21:45;;;;;;;9.73;2.78;;;;;;;;;;5035610;28;20046;-73
2024/01/02 10:24:26;;;;;;;3.90;1.77;;;;;;;;;;5027160;28;20404;-73
2024/01/02 10:27:03;;;;;;;6.88;2.92;;;;;;;;;;5009526;28;20028;-73
2024/01/02 10:29:45;;;;;;;9.38;2.50;;;;;;;;;;5025512;28;20017;-74
2024/01/02 10:32:19;;;;;;;11.85;3.25;;;;;;;;;;5013715;28;20485;-74
2024/01/02 10:34:56;;;;;;;7.00;3.72;;;;;;;;;;5024480;28;20108;-74
2024/01/02 10:37:27;;;;;;;15.07;4.10;;;;;;;;;;5024473;28;20116;-73
2024/01/02 10:40:02;;;;;;;8.48;3.03;;;;;;;;;;5020884;28;20467;-74
2024/01/02 10:42:31;;;;;;;7.88;2.75;;;;;;;;;;5013148;28;20717;-73
2024/01/02 10:45:03;;;;;;;6.68;1.80;;;;;;;;;;5021092;28;20103;-73
2024/01/02 10:47:39;;;;;;;5.85;2.53;;;;;;;;;;5030769;28;20033;-73
2024/01/02 10:50:05;;;;;;;5.78;2.28;;;;;;;;;;5023322;28;20080;-73
2024/01/02 10:52:42;;;;;;;7.32;2.88;;;;;;;;;;5016669;28;20106;-73
2024/01/02 10:55:09;;;;;;;8.80;2.78;;;;;;;;;;5021492;28;20029;-73
2024/01/02 10:57:54;;;;;;;5.88;2.67;;;;;;;;;;5019533;28;20029;-73
2024/01/02 11:00:22;;;;;;;5.13;2.33;;;;;;;;;;5012384;28;20033;-74
2024/01/02 11:02:58;;;;;;;6.47;2.50;;;;;;;;;;5023824;28;20021;-74
2024/01/02 11:05:24;;;;;;;8.10;2.90;;;;;;;;;;5027285;28;20025;-73
2024/01/02 11:07:54;;;;;;;8.85;2.50;;;;;;;;;;5036603;28;20196;-73
2024/01/02 11:10:24;;;;;;;7.93;2.60;;;;;;;;;;5011098;28;20032;-73
2024/01/02 11:13:03;;;;;;;5.72;2.13;;;;;;;;;;5015618;28;20022;-73
2024/01/02 11:15:32;;;;;;;5.90;2.55;;;;;;;;;;5019163;28;20527;-72
2024/01/02 11:17:59;;;;;;;9.88;2.13;;;;;;;;;;5018530;28;20037;-74
2024/01/02 11:20:29;;;;;;;6.35;2.30;;;;;;;;;;5009471;28;20466;-72
2024/01/02 11:23:01;;;;;;;6.85;2.25;;;;;;;;;;5034315;28;20404;-73
2024/01/02 11:25:29;;;;;;;9.50;2.63;;;;;;;;;;5010527;28;20064;-73
2024/01/02 11:27:56;;;;;;;7.72;4.72;;;;;;;;;;5016461;28;20041;-73
2024/01/02 11:30:24;;;;;;;10.18;3.28;;;;;;;;;;5022116;28;20018;-73
2024/01/02 11:32:53;;;;;;;11.30;2.53;;;;;;;;;;5013493;28;20545;-74
2024/01/02 11:35:20;;;;;;;4.00;2.17;;;;;;;;;;5019311;28;20065;-74
2024/01/02 11:37:52;;;;;;;7.28;2.83;;;;;;;;;;5037789;28;20030;-73
2024/01/02 11:40:23;;;;;;;7.35;2.85;;;;;;;;;;5021119;28;20033;-74
2024/01/02 11:42:58;;;;;;;9.38;2.63;;;;;;;;;;5019439;28;20044;-74
2024/01/02 11:45:27;;;;;;;4.03;1.98;;;;;;;;;;5019907;28;20482;-74
2024/01/02 11:47:59;;;;;;;6.35;2.22;;;;;;;;;;5023450;28;20030;-74
2024/01/02 11:50:41;;;;;;;5.05;2.50;;;;;;;;;;5013257;28;20054;-74
2024/01/02 11:53:13;;;;;;;6.32;2.95;;;;;;;;;;5010691;28;20455;-75
2024/01/02 11:55:50;;;;;;;7.75;3.50;;;;;;;;;;5023449;28;20018;-74
2024/01/02 11:58:45;;;;;;;6.20;2.85;;;;;;;;;;5009441;28;20032;-75
2024/01/02 12:01:50;;;;;;;5.47;2.20;;;;;;;;;;5007744;28;20117;-74
2024/01/02 12:04:32;;;;;;;12.88;2.80;;;;;;;;;;4982308;28;20030;-75
2024/01/02 12:07:12;;;;;;;5.20;2.78;;;;;;;;;;4987043;28;20456;-75
2024/01/02 12:09:41;;;;;;;5.10;2.90;;;;;;;;;;5003933;28;20104;-74
2024/01/02 12:12:39;;;;;;;8.25;3.30;;;;;;;;;;5018772;28;20018;-74
2024/01/02 12:15:21;;;;;;;14.50;2.92;;;;;;;;;;4996687;28;20025;-75
2024/01/02 12:17:57;;;;;;;4.97;3.13;;;;;;;;;;5018431;28;20033;-73
2024/01/02 12:20:24;;;;;;;14.38;3.28;;;;;;;;;;5024937;28;20056;-74
2024/01/02 12:22:51;;;;;;;7.28;3.80;;;;;;;;;;5021203;28;20541;-73
2024/01/02 12:25:18;;;;;;;4.55;3.38;;;;;;;;;;5016326;28;20474;-74
2024/01/02 12:27:46;;;;;;;5.13;3.00;;;;;;;;;;5029743;28;20489;-74
2024/01/02 12:30:21;;;;;;;6.50;2.92;;;;;;;;;;5011701;28;20018;-74
2024/01/02 12:33:01;;;;;;;5.38;3.15;;;;;;;;;;5036872;28;20042;-74
2024/01/02 12:35:29;;;;;;;8.93;3.70;;;;;;;;;;5027104;28;20034;-74
2024/01/02 12:38:03;;;;;;;12.80;3.42;;;;;;;;;;5028348;28;20030;-74
2024/01/02 12:40:32;;;;;;;5.10;3.08;;;;;;;;;;5026743;28;20580;-74
2024/01/02 12:42:59;;;;;;;6.07;2.97;;;;;;;;;;5043354;28;20045;-75
2024/01/02 12:45:33;;;;;;;6.55;3.20;;;;;;;;;;5024725;28;20026;-73
2024/01/02 12:48:03;;;;;;;9.02;3.28;;;;;;;;;;5017208;28;20606;-74
2024/01/02 12:50:30;;;;;;;7.95;2.92;;;;;;;;;;5035915;28;20132;-72
2024/01/02 12:53:12;;;;;;;6.43;3.20;;;;;;;;;;5023199;28;20036;-73
2024/01/02 12:55:42;;;;;;;6.00;2.60;;;;;;;;;;5019370;28;20029;-73
2024/01/02 12:58:08;;;;;;;6.57;2.88;;;;;;;;;;5012287;28;20060;-73
2024/01/02 13:00:35;;;;;;;5.53;3.15;;;;;;;;;;5022381;28;20271;-73
2024/01/02 13:03:01;;;;;;;7.63;2.70;;;;;;;;;;5031697;28;20131;-73
2024/01/02 13:05:27;;;;;;;4.35;2.33;;;;;;;;;;5020871;28;20465;-73
2024/01/02 13:07:54;;;;;;;5.25;3.05;;;;;;;;;;5027323;28;20067;-73
2024/01/02 13:10:23;;;;;;;3.65;2.63;;;;;;;;;;5024086;28;20030;-72
2024/01/02 13:12:50;;;;;;;9.27;2.38;;;;;;;;;;5018507;28;20052;-71
2024/01/02 13:15:17;;;;;;;6.47;2.55;;;;;;;;;;5037373;28;20108;-71
2024/01/02 13:17:44;;;;;;;3.65;2.42;;;;;;;;;;5016976;28;20026;-71
2024/01/02 13:20:10;;;;;;;4.93;3.85;;;;;;;;;;5022576;28;20030;-74
2024/01/02 13:22:37;;;;;;;5.88;2.40;;;;;;;;;;5023773;28;20533;-74
2024/01/02 13:25:14;;;;;;;12.13;3.33;;;;;;;;;;5026297;28;20675;-73
2024/01/02 13:27:40;;;;;;;7.95;3.30;;;;;;;;;;5024715;28;20032;-74
2024/01/02 13:30:07;;;;;;;5.82;2.55;;;;;;;;;;5022765;28;20030;-73
2024/01/02 13:32:35;;;;;;;8.95;2.42;;;;;;;;;;5023423;28;20028;-74
2024/01/02 13:35:20;;;;;;;4.22;2.08;;;;;;;;;;5018786;28;20022;-73
2024/01/02 13:37:47;;;;;;;2.78;2.00;;;;;;;;;;5010532;28;20026;-74
2024/01/02 13:40:23;;;;;;;3.13;2.50;;;;;;;;;;5032984;28;20029;-74
2024/01/02 13:42:56;;;;;;;5.63;2.65;;;;;;;;;;5026903;28;20026;-74
2024/01/02 13:45:25;;;;;;;3.05;2.45;;;;;;;;;;5032162;28;20413;-73
2024/01/02 13:47:51;;;;;;;4.72;3.08;;;;;;;;;;5024203;28;20481;-63
2024/01/02 13:50:27;;;;;;;4.90;2.95;;;;;;;;;;5023825;28;20045;-65
2024/01/02 13:53:00;;;;;;;5.25;2.28;;;;;;;;;;5015989;28;20382;-64
2024/01/02 13:55:28;;;;;;;4.35;2.20;;;;;;;;;;5031362;28;20033;-64
2024/01/02 13:57:55;;;;;;;8.95;3.17;;;;;;;;;;5012190;28;20034;-64
2024/01/02 14:00:23;;;;;;;3.83;2.55;;;;;;;;;;5007431;28;20783;-67
2024/01/02 14:02:52;;;;;;;3.15;2.35;;;;;;;;;;5021448;28;20556;-64
2024/01/02 14:05:25;;;;;;;5.43;2.67;;;;;;;;;;5019796;28;20029;-65
2024/01/02 14:07:52;;;;;;;2.85;2.30;;;;;;;;;;5018403;28;20499;-65
2024/01/02 14:10:25;;;;;;;2.75;2.25;;;;;;;;;;5011749;28;20026;-70
2024/01/02 14:12:53;;;;;;;2.22;2.03;;;;;;;;;;5022760;28;20063;-69
2024/01/02 14:15:20;;;;;;;2.40;1.73;;;;;;;;;;5021890;28;20026;-69
2024/01/02 14:17:58;;;;;;;7.85;2.53;;;;;;;;;;5022201;28;20033;-68
2024/01/02 14:20:29;;;;;;;6.20;2.17;;;;;;;;;;5024565;28;20025;-68
2024/01/02 14:23:03;;;;;;;4.60;2.10;;;;;;;;;;5024721;28;20421;-69
2024/01/02 14:25:41;;;;;;;3.42;1.77;;;;;;;;;;5025716;28;20044;-68
2024/01/02 14:28:10;;;;;;;2.75;2.00;;;;;;;;;;5023858;28;20089;-67
2024/01/02 14:30:38;;;;;;;7.45;2.70;;;;;;;;;;5020322;28;20160;-66
2024/01/02 14:33:19;;;;;;;3.10;1.85;;;;;;;;;;5016949;28;20114;-65
2024/01/02 14:35:46;;;;;;;6.25;2.58;;;;;;;;;;5019231;28;20060;-65
2024/01/02 14:38:38;;;;;;;6.90;2.83;;;;;;;;;;5018902;28;20029;-65
2024/01/02 14:41:23;;;;;;;2.60;2.40;;;;;;;;;;5016584;28;20120;-64
2024/01/02 14:44:11;;;;;;;2.97;2.35;;;;;;;;;;5020070;28;20053;-64
2024/01/02 14:46:37;;;;;;;5.38;3.05;;;;;;;;;;5024314;28;20022;-64